Darstellungsparameter: Aktuell verwendete Einstellungen:
Skalierung der Graphiken ... ?
xyx+y,   Skalierungsfaktor:      Skalierung: Modus: x, Faktor: 1
Darstellungszeitraum ... ?
Vom - - bis: - -   Zeitraum: 10.10.2020 - 12.10.2020
Min/Max/Avg-Anzeige ... ?
Zeige MMA aktuell
Zeige MMA Monat
Zeige MMA alles
Zeige --A aktuell
Zeige --A Monat
Zeige --A alles
Keine MMA-Anzeige
MMA:
Average (ber die Originaldaten)
MMA-Basis: 10.10.2020 - 12.10.2020
Quicknavigation für Darstellung... ?
Tage:      1T, 2T, 3T, 5T -1T -2T -3T -5T +1T +2T +3T +5T
Wochen: 1W, 2W, 3W -1W -2W -3W +1W +2W +3W
Monate: 1M, 3M, 6M -1M -3M -6M +1M +3M +6M
Jahre:    1J, 3J, 5J, 10J -1J -3J -5J -10J +1J +3J +5J +10J
Nutze für die Darstellung ... ?
Originaldaten oder Mittelwerte auf ...
Stundenbasis Tagesbasis Wochenbasis
Monatsbasis Jahresbasis      Datenbasis: Original-Daten
Darstellen als:
Statistik (Auto) Statistik J:M      Darstellung:
Zur Graphik,    zurück zur Übersicht aller Sensoren.
 
Tabellarische Datenbersicht: ?
 
Sensor: Nr:Datum:Temp:Abs-Feuchte:Windchill:Wind:
Aussen-T/F 1 10-10-2020 00:00:00 11.1 C 9.77 g/m*3 11.1 C 0 km/h
2 10-10-2020 00:05:00 11.1 C 9.77 g/m*3 11.1 C 0 km/h
3 10-10-2020 00:10:00 11.1 C 9.77 g/m*3 11.1 C 0 km/h
4 10-10-2020 00:15:00 11.1 C 9.77 g/m*3 11.1 C 0 km/h
5 10-10-2020 00:20:00 11 C 9.71 g/m*3 11 C 0 km/h
6 10-10-2020 00:25:00 10.9 C 9.65 g/m*3 10.9 C 0 km/h
7 10-10-2020 00:30:00 10.9 C 9.65 g/m*3 10.9 C 0 km/h
8 10-10-2020 00:35:00 10.8 C 9.59 g/m*3 10.8 C 0 km/h
9 10-10-2020 00:40:00 10.8 C 9.59 g/m*3 10.8 C 0 km/h
10 10-10-2020 00:45:00 10.7 C 9.53 g/m*3 10.7 C 0 km/h
11 10-10-2020 00:50:00 10.6 C 9.47 g/m*3 10.6 C 0 km/h
12 10-10-2020 00:55:00 10.6 C 9.47 g/m*3 10.06 C 6.4 km/h
13 10-10-2020 01:00:00 10.4 C 9.35 g/m*3 9.83 C 6.4 km/h
14 10-10-2020 01:05:00 10.4 C 9.35 g/m*3 9.46 C 8.1 km/h
15 10-10-2020 01:10:00 10.3 C 9.19 g/m*3 10.3 C 4.8 km/h
16 10-10-2020 01:15:00 10.2 C 9.23 g/m*3 10.2 C 4.8 km/h
17 10-10-2020 01:20:00 10.1 C 9.17 g/m*3 9.48 C 6.4 km/h
18 10-10-2020 01:25:00 10 C 9.11 g/m*3 10 C 4.8 km/h
19 10-10-2020 01:30:00 9.9 C 8.96 g/m*3 9.25 C 6.4 km/h
20 10-10-2020 01:35:00 9.9 C 8.96 g/m*3 9.9 C 3.2 km/h
21 10-10-2020 01:40:00 9.8 C 9 g/m*3 9.8 C 1.6 km/h
22 10-10-2020 01:45:00 9.7 C 8.94 g/m*3 9.7 C 3.2 km/h
23 10-10-2020 01:50:00 9.7 C 8.94 g/m*3 9.7 C 0 km/h
24 10-10-2020 01:55:00 9.6 C 8.79 g/m*3 9.6 C 1.6 km/h
25 10-10-2020 02:00:00 9.6 C 8.89 g/m*3 9.6 C 1.6 km/h
Sensor: Nr:Datum:Temp:Abs-Feuchte:Windchill:Wind:
Aussen-T/F 26 10-10-2020 02:05:00 9.6 C 8.89 g/m*3 9.6 C 4.8 km/h
27 10-10-2020 02:10:00 9.6 C 8.89 g/m*3 9.6 C 3.2 km/h
28 10-10-2020 02:15:00 9.6 C 8.89 g/m*3 9.6 C 4.8 km/h
29 10-10-2020 02:20:00 9.6 C 8.89 g/m*3 8.91 C 6.4 km/h
30 10-10-2020 02:25:00 9.6 C 8.89 g/m*3 9.6 C 0 km/h
31 10-10-2020 02:30:00 9.6 C 8.89 g/m*3 9.6 C 0 km/h
32 10-10-2020 02:35:00 9.6 C 8.89 g/m*3 9.6 C 0 km/h
33 10-10-2020 02:40:00 9.6 C 8.89 g/m*3 9.6 C 4.8 km/h
34 10-10-2020 02:45:00 9.7 C 8.94 g/m*3 9.7 C 1.6 km/h
35 10-10-2020 02:50:00 9.6 C 8.89 g/m*3 9.6 C 0 km/h
36 10-10-2020 02:55:00 9.6 C 8.89 g/m*3 9.6 C 0 km/h
37 10-10-2020 03:00:00 9.6 C 8.89 g/m*3 9.6 C 0 km/h
38 10-10-2020 03:05:00 9.6 C 8.89 g/m*3 9.6 C 0 km/h
39 10-10-2020 03:10:00 9.5 C 8.83 g/m*3 9.5 C 3.2 km/h
40 10-10-2020 03:15:00 9.6 C 8.89 g/m*3 8.91 C 6.4 km/h
41 10-10-2020 03:20:00 9.6 C 8.89 g/m*3 9.6 C 4.8 km/h
42 10-10-2020 03:25:00 9.6 C 8.89 g/m*3 9.6 C 1.6 km/h
43 10-10-2020 03:30:00 9.6 C 8.89 g/m*3 9.6 C 3.2 km/h
44 10-10-2020 03:35:00 9.6 C 8.89 g/m*3 9.6 C 1.6 km/h
45 10-10-2020 03:40:00 9.6 C 8.89 g/m*3 9.6 C 3.2 km/h
46 10-10-2020 03:45:00 9.7 C 8.94 g/m*3 9.7 C 4.8 km/h
47 10-10-2020 03:50:00 9.7 C 8.94 g/m*3 9.7 C 3.2 km/h
48 10-10-2020 03:55:00 9.7 C 8.94 g/m*3 9.7 C 1.6 km/h
49 10-10-2020 04:00:00 9.8 C 9 g/m*3 9.8 C 4.8 km/h
50 10-10-2020 04:05:00 9.8 C 9 g/m*3 9.8 C 1.6 km/h
Sensor: Nr:Datum:Temp:Abs-Feuchte:Windchill:Wind:
Aussen-T/F 51 10-10-2020 04:10:00 9.8 C 9 g/m*3 9.8 C 3.2 km/h
52 10-10-2020 04:15:00 9.8 C 9 g/m*3 9.8 C 1.6 km/h
53 10-10-2020 04:20:00 9.9 C 9.06 g/m*3 9.9 C 4.8 km/h
54 10-10-2020 04:25:00 9.9 C 9.06 g/m*3 9.9 C 1.6 km/h
55 10-10-2020 04:30:00 9.9 C 9.06 g/m*3 9.9 C 4.8 km/h
56 10-10-2020 04:35:00 9.9 C 9.06 g/m*3 9.9 C 4.8 km/h
57 10-10-2020 04:40:00 9.9 C 9.06 g/m*3 9.9 C 4.8 km/h
58 10-10-2020 04:45:00 9.9 C 9.06 g/m*3 9.9 C 0 km/h
59 10-10-2020 04:50:00 9.9 C 9.06 g/m*3 9.9 C 0 km/h
60 10-10-2020 04:55:00 9.9 C 9.06 g/m*3 9.9 C 3.2 km/h
61 10-10-2020 05:00:00 9.9 C 9.06 g/m*3 9.9 C 3.2 km/h
62 10-10-2020 05:05:00 9.9 C 9.06 g/m*3 9.9 C 1.6 km/h
63 10-10-2020 05:10:00 9.8 C 9 g/m*3 9.8 C 1.6 km/h
64 10-10-2020 05:15:00 9.8 C 9 g/m*3 9.8 C 0 km/h
65 10-10-2020 05:20:00 9.8 C 9 g/m*3 9.8 C 0 km/h
66 10-10-2020 05:25:00 9.8 C 9 g/m*3 9.8 C 0 km/h
67 10-10-2020 05:30:00 9.8 C 9 g/m*3 9.8 C 0 km/h
68 10-10-2020 05:35:00 9.8 C 9 g/m*3 9.8 C 0 km/h
69 10-10-2020 05:40:00 9.8 C 9 g/m*3 9.8 C 0 km/h
70 10-10-2020 05:45:00 9.8 C 9 g/m*3 9.8 C 0 km/h
71 10-10-2020 05:50:00 9.8 C 9 g/m*3 9.8 C 0 km/h
72 10-10-2020 05:55:00 9.8 C 9 g/m*3 9.8 C 0 km/h
73 10-10-2020 06:00:00 9.8 C 9 g/m*3 9.8 C 0 km/h
74 10-10-2020 06:05:00 9.8 C 9 g/m*3 9.8 C 0 km/h
75 10-10-2020 06:10:00 9.7 C 8.94 g/m*3 9.7 C 0 km/h
Sensor: Nr:Datum:Temp:Abs-Feuchte:Windchill:Wind:
Aussen-T/F 76 10-10-2020 06:15:00 9.7 C 8.94 g/m*3 9.7 C 0 km/h
77 10-10-2020 06:20:00 9.7 C 8.94 g/m*3 9.7 C 0 km/h
78 10-10-2020 06:25:00 9.6 C 8.89 g/m*3 9.6 C 0 km/h
79 10-10-2020 06:30:00 9.5 C 8.83 g/m*3 9.5 C 1.6 km/h
80 10-10-2020 06:35:00 9.4 C 8.77 g/m*3 9.4 C 0 km/h
81 10-10-2020 06:40:00 9.3 C 8.72 g/m*3 9.3 C 0 km/h
82 10-10-2020 06:45:00 9.3 C 8.72 g/m*3 9.3 C 0 km/h
83 10-10-2020 06:50:00 9.2 C 8.66 g/m*3 9.2 C 0 km/h
84 10-10-2020 06:55:00 9.2 C 8.66 g/m*3 9.2 C 0 km/h
85 10-10-2020 07:00:00 9.2 C 8.66 g/m*3 9.2 C 0 km/h
86 10-10-2020 07:05:00 9.2 C 8.66 g/m*3 9.2 C 0 km/h
87 10-10-2020 07:10:00 9.1 C 8.61 g/m*3 9.1 C 1.6 km/h
88 10-10-2020 07:15:00 9.1 C 8.61 g/m*3 9.1 C 0 km/h
89 10-10-2020 07:20:00 9.1 C 8.61 g/m*3 9.1 C 1.6 km/h
90 10-10-2020 07:25:00 8.9 C 8.5 g/m*3 8.9 C 4.8 km/h
91 10-10-2020 07:30:00 8.9 C 8.5 g/m*3 8.1 C 6.4 km/h
92 10-10-2020 07:35:00 8.8 C 8.44 g/m*3 8.8 C 3.2 km/h
93 10-10-2020 07:40:00 8.8 C 8.44 g/m*3 8.8 C 3.2 km/h
94 10-10-2020 07:45:00 8.7 C 8.39 g/m*3 7.87 C 6.4 km/h
95 10-10-2020 07:50:00 8.7 C 8.39 g/m*3 8.7 C 3.2 km/h
96 10-10-2020 07:55:00 8.6 C 8.34 g/m*3 7.75 C 6.4 km/h
97 10-10-2020 08:00:00 8.5 C 8.28 g/m*3 8.5 C 4.8 km/h
98 10-10-2020 08:05:00 8.4 C 8.23 g/m*3 8.4 C 4.8 km/h
99 10-10-2020 08:10:00 8.4 C 8.23 g/m*3 8.4 C 3.2 km/h
100 10-10-2020 08:15:00 8.3 C 8.18 g/m*3 8.3 C 4.8 km/h
Sensor: Nr:Datum:Temp:Abs-Feuchte:Windchill:Wind:
Aussen-T/F 101 10-10-2020 08:20:00 8.3 C 8.18 g/m*3 8.3 C 3.2 km/h
102 10-10-2020 08:25:00 8.2 C 8.12 g/m*3 8.2 C 3.2 km/h
103 10-10-2020 08:30:00 8.3 C 8.18 g/m*3 8.3 C 4.8 km/h
104 10-10-2020 08:35:00 8.3 C 8.18 g/m*3 8.3 C 4.8 km/h
105 10-10-2020 08:40:00 8.3 C 8.18 g/m*3 8.3 C 4.8 km/h
106 10-10-2020 08:45:00 8.4 C 8.23 g/m*3 8.4 C 0 km/h
107 10-10-2020 08:50:00 8.5 C 8.28 g/m*3 8.5 C 0 km/h
108 10-10-2020 08:55:00 8.6 C 8.34 g/m*3 8.6 C 0 km/h
109 10-10-2020 09:00:00 8.6 C 8.34 g/m*3 8.6 C 4.8 km/h
110 10-10-2020 09:05:00 8.5 C 8.28 g/m*3 8.5 C 3.2 km/h
111 10-10-2020 09:10:00 8.5 C 8.28 g/m*3 8.5 C 0 km/h
112 10-10-2020 09:15:00 8.4 C 8.23 g/m*3 8.4 C 1.6 km/h
113 10-10-2020 09:20:00 8.3 C 8.18 g/m*3 8.3 C 1.6 km/h
114 10-10-2020 09:25:00 8.3 C 8.18 g/m*3 8.3 C 1.6 km/h
115 10-10-2020 09:30:00 8.2 C 8.12 g/m*3 8.2 C 4.8 km/h
116 10-10-2020 09:35:00 8.2 C 8.12 g/m*3 8.2 C 1.6 km/h
117 10-10-2020 09:40:00 8.1 C 8.07 g/m*3 8.1 C 1.6 km/h
118 10-10-2020 09:45:00 8.1 C 8.07 g/m*3 8.1 C 0 km/h
119 10-10-2020 09:50:00 8.1 C 8.07 g/m*3 8.1 C 0 km/h
120 10-10-2020 09:55:00 8 C 8.02 g/m*3 8 C 0 km/h
121 10-10-2020 10:00:00 7.9 C 7.97 g/m*3 7.9 C 0 km/h
122 10-10-2020 10:05:00 7.9 C 7.97 g/m*3 7.9 C 4.8 km/h
123 10-10-2020 10:10:00 8 C 8.02 g/m*3 7.06 C 6.4 km/h
124 10-10-2020 10:15:00 8.1 C 8.07 g/m*3 8.1 C 0 km/h
125 10-10-2020 10:20:00 8.1 C 8.07 g/m*3 8.1 C 3.2 km/h
Sensor: Nr:Datum:Temp:Abs-Feuchte:Windchill:Wind:
Aussen-T/F 126 10-10-2020 10:25:00 8.2 C 8.12 g/m*3 8.2 C 4.8 km/h
127 10-10-2020 10:30:00 8.2 C 8.12 g/m*3 6.87 C 8.1 km/h
128 10-10-2020 10:35:00 8.2 C 8.12 g/m*3 7.29 C 6.4 km/h
129 10-10-2020 10:40:00 8.3 C 8.18 g/m*3 7.41 C 6.4 km/h
130 10-10-2020 10:45:00 8.4 C 8.23 g/m*3 7.52 C 6.4 km/h
131 10-10-2020 10:50:00 8.4 C 8.23 g/m*3 8.4 C 3.2 km/h
132 10-10-2020 10:55:00 8.5 C 8.28 g/m*3 7.64 C 6.4 km/h
133 10-10-2020 11:00:00 8.7 C 8.39 g/m*3 8.7 C 4.8 km/h
134 10-10-2020 11:05:00 8.7 C 8.39 g/m*3 8.7 C 4.8 km/h
135 10-10-2020 11:10:00 8.8 C 8.44 g/m*3 8.8 C 4.8 km/h
136 10-10-2020 11:15:00 8.9 C 8.5 g/m*3 8.1 C 6.4 km/h
137 10-10-2020 11:20:00 9 C 8.55 g/m*3 8.21 C 6.4 km/h
138 10-10-2020 11:25:00 9.1 C 8.52 g/m*3 9.1 C 4.8 km/h
139 10-10-2020 11:30:00 9.2 C 8.57 g/m*3 9.2 C 4.8 km/h
140 10-10-2020 11:35:00 9.2 C 8.57 g/m*3 7.46 C 11.3 km/h
141 10-10-2020 11:40:00 9.2 C 8.39 g/m*3 7.46 C 11.3 km/h
142 10-10-2020 11:45:00 9.3 C 8.36 g/m*3 8.56 C 6.4 km/h
143 10-10-2020 11:50:00 9.3 C 8.18 g/m*3 7.85 C 9.7 km/h
144 10-10-2020 11:55:00 9.5 C 8.19 g/m*3 8.4 C 8.1 km/h
145 10-10-2020 12:00:00 9.7 C 8.2 g/m*3 7.82 C 12.9 km/h
146 10-10-2020 12:05:00 9.9 C 8.12 g/m*3 8.56 C 9.7 km/h
147 10-10-2020 12:10:00 10.3 C 8.24 g/m*3 8.55 C 12.9 km/h
148 10-10-2020 12:15:00 10.7 C 8.25 g/m*3 10.18 C 6.4 km/h
149 10-10-2020 12:20:00 10.9 C 8.26 g/m*3 9.28 C 12.9 km/h
150 10-10-2020 12:25:00 11.1 C 8.06 g/m*3 11.1 C 14.5 km/h
Sensor: Nr:Datum:Temp:Abs-Feuchte:Windchill:Wind:
Aussen-T/F 151 10-10-2020 12:30:00 11.2 C 7.6 g/m*3 11.2 C 14.5 km/h
152 10-10-2020 12:35:00 11.3 C 7.85 g/m*3 11.3 C 9.7 km/h
153 10-10-2020 12:40:00 11.5 C 7.54 g/m*3 11.5 C 16.1 km/h
154 10-10-2020 12:45:00 11.7 C 7.53 g/m*3 11.7 C 12.9 km/h
155 10-10-2020 12:50:00 11.8 C 7.68 g/m*3 11.8 C 14.5 km/h
156 10-10-2020 12:55:00 11.8 C 7.58 g/m*3 11.8 C 14.5 km/h
157 10-10-2020 13:00:00 11.9 C 7.73 g/m*3 11.9 C 17.7 km/h
158 10-10-2020 13:05:00 12 C 7.67 g/m*3 12 C 17.7 km/h
159 10-10-2020 13:10:00 11.9 C 7.2 g/m*3 11.9 C 20.9 km/h
160 10-10-2020 13:15:00 12.1 C 7.29 g/m*3 12.1 C 11.3 km/h
161 10-10-2020 13:20:00 12.2 C 7.66 g/m*3 12.2 C 14.5 km/h
162 10-10-2020 13:25:00 12.3 C 7.49 g/m*3 12.3 C 11.3 km/h
163 10-10-2020 13:30:00 12.4 C 7.65 g/m*3 12.4 C 11.3 km/h
164 10-10-2020 13:35:00 12.4 C 7.43 g/m*3 12.4 C 11.3 km/h
165 10-10-2020 13:40:00 12.4 C 7.32 g/m*3 12.4 C 12.9 km/h
166 10-10-2020 13:45:00 12.4 C 7.54 g/m*3 12.4 C 11.3 km/h
167 10-10-2020 13:50:00 12.5 C 7.48 g/m*3 12.5 C 9.7 km/h
168 10-10-2020 13:55:00 12.4 C 7.65 g/m*3 12.4 C 4.8 km/h
169 10-10-2020 14:00:00 12.4 C 7.43 g/m*3 12.4 C 12.9 km/h
170 10-10-2020 14:05:00 12.3 C 7.28 g/m*3 12.3 C 9.7 km/h
171 10-10-2020 14:10:00 12.4 C 7.21 g/m*3 12.4 C 11.3 km/h
172 10-10-2020 14:15:00 12.7 C 7.46 g/m*3 12.7 C 8.1 km/h
173 10-10-2020 14:20:00 12.8 C 7.39 g/m*3 12.8 C 9.7 km/h
174 10-10-2020 14:25:00 12.8 C 7.28 g/m*3 12.8 C 8.1 km/h
175 10-10-2020 14:30:00 12.7 C 7.24 g/m*3 12.7 C 9.7 km/h
Sensor: Nr:Datum:Temp:Abs-Feuchte:Windchill:Wind:
Aussen-T/F 176 10-10-2020 14:35:00 12.6 C 7.19 g/m*3 12.6 C 8.1 km/h
177 10-10-2020 14:40:00 12.4 C 6.99 g/m*3 12.4 C 12.9 km/h
178 10-10-2020 14:45:00 12.3 C 7.38 g/m*3 12.3 C 6.4 km/h
179 10-10-2020 14:50:00 12.3 C 7.49 g/m*3 12.3 C 9.7 km/h
180 10-10-2020 14:55:00 12.3 C 7.38 g/m*3 12.3 C 11.3 km/h
181 10-10-2020 15:00:00 12.4 C 7.43 g/m*3 12.4 C 6.4 km/h
182 10-10-2020 15:05:00 12.6 C 7.63 g/m*3 12.6 C 8.1 km/h
183 10-10-2020 15:10:00 12.5 C 7.26 g/m*3 12.5 C 8.1 km/h
184 10-10-2020 15:15:00 12.5 C 7.48 g/m*3 12.5 C 11.3 km/h
185 10-10-2020 15:20:00 12.6 C 7.3 g/m*3 12.6 C 9.7 km/h
186 10-10-2020 15:25:00 12.7 C 7.01 g/m*3 12.7 C 11.3 km/h
187 10-10-2020 15:30:00 12.8 C 7.28 g/m*3 12.8 C 12.9 km/h
188 10-10-2020 15:35:00 12.7 C 7.01 g/m*3 12.7 C 17.7 km/h
189 10-10-2020 15:40:00 12.7 C 7.12 g/m*3 12.7 C 6.4 km/h
190 10-10-2020 15:45:00 12.7 C 7.12 g/m*3 12.7 C 9.7 km/h
191 10-10-2020 15:50:00 12.8 C 7.06 g/m*3 12.8 C 8.1 km/h
192 10-10-2020 15:55:00 12.8 C 7.06 g/m*3 12.8 C 9.7 km/h
193 10-10-2020 16:00:00 12.9 C 6.99 g/m*3 12.9 C 12.9 km/h
194 10-10-2020 16:05:00 13.1 C 6.85 g/m*3 13.1 C 19.3 km/h
195 10-10-2020 16:10:00 12.9 C 6.88 g/m*3 12.9 C 11.3 km/h
196 10-10-2020 16:15:00 12.8 C 7.28 g/m*3 12.8 C 4.8 km/h
197 10-10-2020 16:20:00 12.7 C 7.57 g/m*3 12.7 C 9.7 km/h
198 10-10-2020 16:25:00 12.4 C 7.54 g/m*3 12.4 C 4.8 km/h
199 10-10-2020 16:30:00 12.4 C 7.98 g/m*3 12.4 C 3.2 km/h
200 10-10-2020 16:35:00 12.3 C 7.38 g/m*3 12.3 C 8.1 km/h
Sensor: Nr:Datum:Temp:Abs-Feuchte:Windchill:Wind:
Aussen-T/F 201 10-10-2020 16:40:00 12.4 C 7.1 g/m*3 12.4 C 8.1 km/h
202 10-10-2020 16:45:00 12.6 C 7.08 g/m*3 12.6 C 8.1 km/h
203 10-10-2020 16:50:00 12.7 C 6.9 g/m*3 12.7 C 11.3 km/h
204 10-10-2020 16:55:00 12.9 C 7.33 g/m*3 12.9 C 14.5 km/h
205 10-10-2020 17:00:00 12.9 C 7.44 g/m*3 12.9 C 6.4 km/h
206 10-10-2020 17:05:00 12.8 C 7.5 g/m*3 12.8 C 8.1 km/h
207 10-10-2020 17:10:00 12.8 C 7.39 g/m*3 12.8 C 9.7 km/h
208 10-10-2020 17:15:00 12.7 C 8.01 g/m*3 12.7 C 3.2 km/h
209 10-10-2020 17:20:00 12.4 C 7.32 g/m*3 12.4 C 9.7 km/h
210 10-10-2020 17:25:00 12.3 C 7.28 g/m*3 12.3 C 8.1 km/h
211 10-10-2020 17:30:00 12.2 C 7.34 g/m*3 12.2 C 8.1 km/h
212 10-10-2020 17:35:00 12.2 C 7.45 g/m*3 12.2 C 6.4 km/h
213 10-10-2020 17:40:00 12.3 C 7.28 g/m*3 12.3 C 6.4 km/h
214 10-10-2020 17:45:00 12.3 C 7.71 g/m*3 12.3 C 3.2 km/h
215 10-10-2020 17:50:00 12.2 C 7.34 g/m*3 12.2 C 6.4 km/h
216 10-10-2020 17:55:00 12.2 C 7.55 g/m*3 12.2 C 8.1 km/h
217 10-10-2020 18:00:00 12.5 C 8.14 g/m*3 12.5 C 4.8 km/h
218 10-10-2020 18:05:00 12.7 C 8.01 g/m*3 12.7 C 4.8 km/h
219 10-10-2020 18:10:00 12.8 C 8.06 g/m*3 12.8 C 4.8 km/h
220 10-10-2020 18:15:00 12.8 C 8.18 g/m*3 12.8 C 6.4 km/h
221 10-10-2020 18:20:00 12.6 C 7.97 g/m*3 12.6 C 6.4 km/h
222 10-10-2020 18:25:00 12.3 C 7.93 g/m*3 12.3 C 6.4 km/h
223 10-10-2020 18:30:00 11.9 C 7.84 g/m*3 11.9 C 6.4 km/h
224 10-10-2020 18:35:00 11.6 C 7.8 g/m*3 11.6 C 4.8 km/h
225 10-10-2020 18:40:00 11.2 C 7.6 g/m*3 11.2 C 6.4 km/h
Sensor: Nr:Datum:Temp:Abs-Feuchte:Windchill:Wind:
Aussen-T/F 226 10-10-2020 18:45:00 10.8 C 7.61 g/m*3 10.29 C 6.4 km/h
227 10-10-2020 18:50:00 10.4 C 7.42 g/m*3 9.83 C 6.4 km/h
228 10-10-2020 18:55:00 10.1 C 7.47 g/m*3 9.48 C 6.4 km/h
229 10-10-2020 19:00:00 9.8 C 7.42 g/m*3 9.8 C 4.8 km/h
230 10-10-2020 19:05:00 9.5 C 7.28 g/m*3 9.5 C 4.8 km/h
231 10-10-2020 19:10:00 9.3 C 7.28 g/m*3 9.3 C 4.8 km/h
232 10-10-2020 19:15:00 9.1 C 7.28 g/m*3 9.1 C 4.8 km/h
233 10-10-2020 19:20:00 8.8 C 7.14 g/m*3 7.98 C 6.4 km/h
234 10-10-2020 19:25:00 8.6 C 7.13 g/m*3 7.75 C 6.4 km/h
235 10-10-2020 19:30:00 8.4 C 7.13 g/m*3 7.52 C 6.4 km/h
236 10-10-2020 19:35:00 8.3 C 7.16 g/m*3 7.41 C 6.4 km/h
237 10-10-2020 19:40:00 8.2 C 7.12 g/m*3 6.87 C 8.1 km/h
238 10-10-2020 19:45:00 8.1 C 7.07 g/m*3 6.75 C 8.1 km/h
239 10-10-2020 19:50:00 8 C 7.03 g/m*3 6.64 C 8.1 km/h
240 10-10-2020 19:55:00 7.9 C 6.98 g/m*3 6.18 C 9.7 km/h
241 10-10-2020 20:00:00 7.8 C 6.94 g/m*3 6.4 C 8.1 km/h
242 10-10-2020 20:05:00 7.8 C 6.94 g/m*3 6.4 C 8.1 km/h
243 10-10-2020 20:10:00 7.7 C 6.89 g/m*3 6.28 C 8.1 km/h
244 10-10-2020 20:15:00 7.6 C 6.93 g/m*3 6.6 C 6.4 km/h
245 10-10-2020 20:20:00 7.6 C 6.93 g/m*3 6.6 C 6.4 km/h
246 10-10-2020 20:25:00 7.4 C 6.92 g/m*3 6.37 C 6.4 km/h
247 10-10-2020 20:30:00 7.3 C 6.87 g/m*3 7.3 C 3.2 km/h
248 10-10-2020 20:35:00 7.3 C 6.87 g/m*3 7.3 C 3.2 km/h
249 10-10-2020 20:40:00 7.2 C 6.83 g/m*3 7.2 C 3.2 km/h
250 10-10-2020 20:45:00 7.1 C 6.86 g/m*3 7.1 C 3.2 km/h
Sensor: Nr:Datum:Temp:Abs-Feuchte:Windchill:Wind:
Aussen-T/F 251 10-10-2020 20:50:00 7 C 6.82 g/m*3 7 C 3.2 km/h
252 10-10-2020 20:55:00 6.9 C 6.85 g/m*3 6.9 C 1.6 km/h
253 10-10-2020 21:00:00 6.8 C 6.81 g/m*3 6.8 C 3.2 km/h
254 10-10-2020 21:05:00 6.8 C 6.81 g/m*3 6.8 C 4.8 km/h
255 10-10-2020 21:10:00 6.7 C 6.84 g/m*3 6.7 C 4.8 km/h
256 10-10-2020 21:15:00 6.7 C 6.84 g/m*3 6.7 C 1.6 km/h
257 10-10-2020 21:20:00 6.7 C 6.84 g/m*3 6.7 C 3.2 km/h
258 10-10-2020 21:25:00 6.6 C 6.87 g/m*3 6.6 C 3.2 km/h
259 10-10-2020 21:30:00 6.6 C 6.87 g/m*3 6.6 C 0 km/h
260 10-10-2020 21:35:00 6.6 C 6.87 g/m*3 6.6 C 0 km/h
261 10-10-2020 21:40:00 6.5 C 6.82 g/m*3 6.5 C 1.6 km/h
262 10-10-2020 21:45:00 6.5 C 6.82 g/m*3 5.33 C 6.4 km/h
263 10-10-2020 21:50:00 6.6 C 6.95 g/m*3 4.99 C 8.1 km/h
264 10-10-2020 21:55:00 6.7 C 6.99 g/m*3 6.7 C 4.8 km/h
265 10-10-2020 22:00:00 7.1 C 7.18 g/m*3 6.02 C 6.4 km/h
266 10-10-2020 22:05:00 7.2 C 7.14 g/m*3 7.2 C 1.6 km/h
267 10-10-2020 22:10:00 7.4 C 7.24 g/m*3 7.4 C 0 km/h
268 10-10-2020 22:15:00 7.6 C 7.33 g/m*3 7.6 C 4.8 km/h
269 10-10-2020 22:20:00 7.8 C 7.35 g/m*3 6.83 C 6.4 km/h
270 10-10-2020 22:25:00 8 C 7.36 g/m*3 8 C 4.8 km/h
271 10-10-2020 22:30:00 8.2 C 7.29 g/m*3 8.2 C 4.8 km/h
272 10-10-2020 22:35:00 8.4 C 7.3 g/m*3 6.49 C 11.3 km/h
273 10-10-2020 22:40:00 8.9 C 7.36 g/m*3 6.85 C 12.9 km/h
274 10-10-2020 22:45:00 9.3 C 7.37 g/m*3 7.85 C 9.7 km/h
275 10-10-2020 22:50:00 9.6 C 7.33 g/m*3 7.48 C 14.5 km/h
Sensor: Nr:Datum:Temp:Abs-Feuchte:Windchill:Wind:
Aussen-T/F 276 10-10-2020 22:55:00 9.7 C 7.38 g/m*3 9.02 C 6.4 km/h
277 10-10-2020 23:00:00 9.8 C 7.33 g/m*3 7.94 C 12.9 km/h
278 10-10-2020 23:05:00 9.8 C 7.33 g/m*3 8.75 C 8.1 km/h
279 10-10-2020 23:10:00 9.8 C 7.42 g/m*3 8.75 C 8.1 km/h
280 10-10-2020 23:15:00 9.7 C 7.38 g/m*3 8.63 C 8.1 km/h
281 10-10-2020 23:20:00 9.7 C 7.38 g/m*3 8.33 C 9.7 km/h
282 10-10-2020 23:25:00 9.7 C 7.38 g/m*3 8.63 C 8.1 km/h
283 10-10-2020 23:30:00 9.6 C 7.33 g/m*3 8.91 C 6.4 km/h
284 10-10-2020 23:35:00 9.6 C 7.42 g/m*3 8.91 C 6.4 km/h
285 10-10-2020 23:40:00 9.6 C 7.42 g/m*3 8.91 C 6.4 km/h
286 10-10-2020 23:45:00 9.5 C 7.37 g/m*3 8.09 C 9.7 km/h
287 10-10-2020 23:50:00 9.5 C 7.37 g/m*3 8.4 C 8.1 km/h
288 10-10-2020 23:55:00 9.4 C 7.33 g/m*3 8.68 C 6.4 km/h
289 11-10-2020 00:00:00 9.3 C 7.28 g/m*3 7.85 C 9.7 km/h
290 11-10-2020 00:05:00 9.3 C 7.37 g/m*3 9.3 C 4.8 km/h
291 11-10-2020 00:10:00 9.3 C 7.37 g/m*3 7.58 C 11.3 km/h
292 11-10-2020 00:15:00 9.3 C 7.28 g/m*3 7.85 C 9.7 km/h
293 11-10-2020 00:20:00 9.4 C 7.33 g/m*3 8.28 C 8.1 km/h
294 11-10-2020 00:25:00 9.4 C 7.33 g/m*3 7.46 C 12.9 km/h
295 11-10-2020 00:30:00 9.4 C 7.33 g/m*3 8.28 C 8.1 km/h
296 11-10-2020 00:35:00 9.5 C 7.46 g/m*3 8.4 C 8.1 km/h
297 11-10-2020 00:40:00 9.6 C 7.51 g/m*3 9.6 C 4.8 km/h
298 11-10-2020 00:45:00 9.6 C 7.42 g/m*3 8.21 C 9.7 km/h
299 11-10-2020 00:50:00 9.6 C 7.51 g/m*3 8.91 C 6.4 km/h
300 11-10-2020 00:55:00 9.7 C 7.56 g/m*3 8.63 C 8.1 km/h
Sensor: Nr:Datum:Temp:Abs-Feuchte:Windchill:Wind:
Aussen-T/F 301 11-10-2020 01:00:00 9.7 C 7.56 g/m*3 8.63 C 8.1 km/h
302 11-10-2020 01:05:00 9.7 C 7.56 g/m*3 7.41 C 16.1 km/h
303 11-10-2020 01:10:00 9.7 C 7.47 g/m*3 8.63 C 8.1 km/h
304 11-10-2020 01:15:00 9.8 C 7.52 g/m*3 7.36 C 17.7 km/h
305 11-10-2020 01:20:00 9.8 C 7.52 g/m*3 9.8 C 4.8 km/h
306 11-10-2020 01:25:00 9.7 C 7.56 g/m*3 9.7 C 4.8 km/h
307 11-10-2020 01:30:00 9.7 C 7.56 g/m*3 9.7 C 4.8 km/h
308 11-10-2020 01:35:00 9.6 C 7.6 g/m*3 9.6 C 3.2 km/h
309 11-10-2020 01:40:00 9.5 C 7.55 g/m*3 8.4 C 8.1 km/h
310 11-10-2020 01:45:00 9.5 C 7.55 g/m*3 8.79 C 6.4 km/h
311 11-10-2020 01:50:00 9.5 C 7.55 g/m*3 8.79 C 6.4 km/h
312 11-10-2020 01:55:00 9.5 C 7.65 g/m*3 9.5 C 4.8 km/h
313 11-10-2020 02:00:00 9.4 C 7.6 g/m*3 8.68 C 6.4 km/h
314 11-10-2020 02:05:00 9.4 C 7.6 g/m*3 9.4 C 3.2 km/h
315 11-10-2020 02:10:00 9.4 C 7.6 g/m*3 8.68 C 6.4 km/h
316 11-10-2020 02:15:00 9.4 C 7.6 g/m*3 9.4 C 4.8 km/h
317 11-10-2020 02:20:00 9.4 C 7.6 g/m*3 8.28 C 8.1 km/h
318 11-10-2020 02:25:00 9.5 C 7.65 g/m*3 8.79 C 6.4 km/h
319 11-10-2020 02:30:00 9.5 C 7.65 g/m*3 9.5 C 4.8 km/h
320 11-10-2020 02:35:00 9.5 C 7.74 g/m*3 9.5 C 3.2 km/h
321 11-10-2020 02:40:00 9.4 C 7.6 g/m*3 9.4 C 4.8 km/h
322 11-10-2020 02:45:00 9.4 C 7.69 g/m*3 8.68 C 6.4 km/h
323 11-10-2020 02:50:00 9.4 C 7.69 g/m*3 9.4 C 4.8 km/h
324 11-10-2020 02:55:00 9.4 C 7.69 g/m*3 9.4 C 3.2 km/h
325 11-10-2020 03:00:00 9.4 C 7.69 g/m*3 9.4 C 3.2 km/h
Sensor: Nr:Datum:Temp:Abs-Feuchte:Windchill:Wind:
Aussen-T/F 326 11-10-2020 03:05:00 9.4 C 7.69 g/m*3 8.68 C 6.4 km/h
327 11-10-2020 03:10:00 9.4 C 7.69 g/m*3 9.4 C 4.8 km/h
328 11-10-2020 03:15:00 9.4 C 7.78 g/m*3 9.4 C 3.2 km/h
329 11-10-2020 03:20:00 9.4 C 7.78 g/m*3 9.4 C 3.2 km/h
330 11-10-2020 03:25:00 9.4 C 7.78 g/m*3 9.4 C 4.8 km/h
331 11-10-2020 03:30:00 9.3 C 7.73 g/m*3 9.3 C 3.2 km/h
332 11-10-2020 03:35:00 9.3 C 7.73 g/m*3 9.3 C 4.8 km/h
333 11-10-2020 03:40:00 9.3 C 7.82 g/m*3 9.3 C 0 km/h
334 11-10-2020 03:45:00 9.3 C 7.82 g/m*3 9.3 C 1.6 km/h
335 11-10-2020 03:50:00 9.3 C 7.82 g/m*3 9.3 C 3.2 km/h
336 11-10-2020 03:55:00 9.3 C 7.82 g/m*3 9.3 C 0 km/h
337 11-10-2020 04:00:00 9.2 C 7.77 g/m*3 9.2 C 4.8 km/h
338 11-10-2020 04:05:00 9.2 C 7.77 g/m*3 8.05 C 8.1 km/h
339 11-10-2020 04:10:00 9.2 C 7.86 g/m*3 9.2 C 3.2 km/h
340 11-10-2020 04:15:00 9.2 C 7.77 g/m*3 8.05 C 8.1 km/h
341 11-10-2020 04:20:00 9.2 C 7.86 g/m*3 9.2 C 4.8 km/h
342 11-10-2020 04:25:00 9.2 C 7.86 g/m*3 9.2 C 3.2 km/h
343 11-10-2020 04:30:00 9.2 C 7.86 g/m*3 9.2 C 1.6 km/h
344 11-10-2020 04:35:00 9.2 C 7.86 g/m*3 9.2 C 1.6 km/h
345 11-10-2020 04:40:00 9.1 C 7.81 g/m*3 9.1 C 3.2 km/h
346 11-10-2020 04:45:00 9.1 C 7.81 g/m*3 9.1 C 1.6 km/h
347 11-10-2020 04:50:00 9.1 C 7.81 g/m*3 9.1 C 3.2 km/h
348 11-10-2020 04:55:00 9 C 7.76 g/m*3 9 C 3.2 km/h
349 11-10-2020 05:00:00 9 C 7.85 g/m*3 9 C 4.8 km/h
350 11-10-2020 05:05:00 9 C 7.85 g/m*3 9 C 1.6 km/h
Sensor: Nr:Datum:Temp:Abs-Feuchte:Windchill:Wind:
Aussen-T/F 351 11-10-2020 05:10:00 9 C 7.85 g/m*3 9 C 1.6 km/h
352 11-10-2020 05:15:00 9 C 7.85 g/m*3 9 C 3.2 km/h
353 11-10-2020 05:20:00 9 C 7.85 g/m*3 9 C 1.6 km/h
354 11-10-2020 05:25:00 9 C 7.85 g/m*3 9 C 4.8 km/h
355 11-10-2020 05:30:00 9 C 7.85 g/m*3 9 C 1.6 km/h
356 11-10-2020 05:35:00 9 C 7.85 g/m*3 8.21 C 6.4 km/h
357 11-10-2020 05:40:00 8.9 C 7.8 g/m*3 8.9 C 1.6 km/h
358 11-10-2020 05:45:00 8.9 C 7.8 g/m*3 8.9 C 0 km/h
359 11-10-2020 05:50:00 8.9 C 7.8 g/m*3 8.9 C 0 km/h
360 11-10-2020 05:55:00 8.9 C 7.8 g/m*3 8.9 C 0 km/h
361 11-10-2020 06:00:00 8.9 C 7.8 g/m*3 8.9 C 0 km/h
362 11-10-2020 06:05:00 8.9 C 7.88 g/m*3 8.9 C 0 km/h
363 11-10-2020 06:10:00 8.9 C 7.88 g/m*3 8.9 C 0 km/h
364 11-10-2020 06:15:00 8.8 C 7.83 g/m*3 8.8 C 0 km/h
365 11-10-2020 06:20:00 8.8 C 7.75 g/m*3 8.8 C 0 km/h
366 11-10-2020 06:25:00 8.8 C 7.83 g/m*3 8.8 C 0 km/h
367 11-10-2020 06:30:00 8.8 C 7.83 g/m*3 8.8 C 0 km/h
368 11-10-2020 06:35:00 8.7 C 7.78 g/m*3 8.7 C 0 km/h
369 11-10-2020 06:40:00 8.7 C 7.78 g/m*3 8.7 C 0 km/h
370 11-10-2020 06:45:00 8.7 C 7.78 g/m*3 8.7 C 0 km/h
371 11-10-2020 06:50:00 8.6 C 7.73 g/m*3 8.6 C 0 km/h
372 11-10-2020 06:55:00 8.6 C 7.73 g/m*3 8.6 C 0 km/h
373 11-10-2020 07:00:00 8.6 C 7.82 g/m*3 8.6 C 0 km/h
374 11-10-2020 07:05:00 8.7 C 7.87 g/m*3 7.87 C 6.4 km/h
375 11-10-2020 07:10:00 8.7 C 7.96 g/m*3 8.7 C 0 km/h
Sensor: Nr:Datum:Temp:Abs-Feuchte:Windchill:Wind:
Aussen-T/F 376 11-10-2020 07:15:00 8.7 C 7.96 g/m*3 8.7 C 0 km/h
377 11-10-2020 07:20:00 8.7 C 7.96 g/m*3 8.7 C 0 km/h
378 11-10-2020 07:25:00 8.7 C 7.96 g/m*3 8.7 C 1.6 km/h
379 11-10-2020 07:30:00 8.7 C 7.96 g/m*3 8.7 C 0 km/h
380 11-10-2020 07:35:00 8.7 C 7.96 g/m*3 8.7 C 0 km/h
381 11-10-2020 07:40:00 8.6 C 7.91 g/m*3 8.6 C 1.6 km/h
382 11-10-2020 07:45:00 8.5 C 7.85 g/m*3 8.5 C 3.2 km/h
383 11-10-2020 07:50:00 8.4 C 7.8 g/m*3 8.4 C 3.2 km/h
384 11-10-2020 07:55:00 8.3 C 7.75 g/m*3 8.3 C 3.2 km/h
385 11-10-2020 08:00:00 8.3 C 7.75 g/m*3 8.3 C 0 km/h
386 11-10-2020 08:05:00 8.2 C 7.79 g/m*3 8.2 C 1.6 km/h
387 11-10-2020 08:10:00 8.2 C 7.79 g/m*3 8.2 C 3.2 km/h
388 11-10-2020 08:15:00 8.1 C 7.74 g/m*3 8.1 C 3.2 km/h
389 11-10-2020 08:20:00 8.1 C 7.74 g/m*3 8.1 C 3.2 km/h
390 11-10-2020 08:25:00 8.1 C 7.74 g/m*3 8.1 C 3.2 km/h
391 11-10-2020 08:30:00 8.1 C 7.74 g/m*3 8.1 C 1.6 km/h
392 11-10-2020 08:35:00 8.2 C 7.87 g/m*3 8.2 C 0 km/h
393 11-10-2020 08:40:00 8.2 C 7.87 g/m*3 8.2 C 0 km/h
394 11-10-2020 08:45:00 8.3 C 7.92 g/m*3 8.3 C 0 km/h
395 11-10-2020 08:50:00 8.3 C 7.92 g/m*3 8.3 C 0 km/h
396 11-10-2020 08:55:00 8.4 C 7.97 g/m*3 8.4 C 0 km/h
397 11-10-2020 09:00:00 8.3 C 7.92 g/m*3 8.3 C 0 km/h
398 11-10-2020 09:05:00 8.3 C 7.92 g/m*3 8.3 C 0 km/h
399 11-10-2020 09:10:00 8.4 C 7.97 g/m*3 8.4 C 0 km/h
400 11-10-2020 09:15:00 8.6 C 8.16 g/m*3 8.6 C 0 km/h
Sensor: Nr:Datum:Temp:Abs-Feuchte:Windchill:Wind:
Aussen-T/F 401 11-10-2020 09:20:00 8.6 C 8.16 g/m*3 8.6 C 0 km/h
402 11-10-2020 09:25:00 8.6 C 8.08 g/m*3 7.75 C 6.4 km/h
403 11-10-2020 09:30:00 8.6 C 8.08 g/m*3 7.75 C 6.4 km/h
404 11-10-2020 09:35:00 8.6 C 8.08 g/m*3 8.6 C 4.8 km/h
405 11-10-2020 09:40:00 8.6 C 8.08 g/m*3 8.6 C 1.6 km/h
406 11-10-2020 09:45:00 8.6 C 7.99 g/m*3 8.6 C 4.8 km/h
407 11-10-2020 09:50:00 8.6 C 8.08 g/m*3 8.6 C 1.6 km/h
408 11-10-2020 09:55:00 8.7 C 8.04 g/m*3 8.7 C 0 km/h
409 11-10-2020 10:00:00 8.8 C 8.18 g/m*3 8.8 C 0 km/h
410 11-10-2020 10:05:00 8.9 C 8.23 g/m*3 8.9 C 0 km/h
411 11-10-2020 10:10:00 9 C 8.29 g/m*3 9 C 0 km/h
412 11-10-2020 10:15:00 8.9 C 8.15 g/m*3 8.9 C 3.2 km/h
413 11-10-2020 10:20:00 9.1 C 8.25 g/m*3 9.1 C 1.6 km/h
414 11-10-2020 10:25:00 9.2 C 8.3 g/m*3 9.2 C 0 km/h
415 11-10-2020 10:30:00 9.2 C 8.13 g/m*3 9.2 C 4.8 km/h
416 11-10-2020 10:35:00 9.3 C 8.18 g/m*3 9.3 C 1.6 km/h
417 11-10-2020 10:40:00 9.4 C 8.23 g/m*3 9.4 C 4.8 km/h
418 11-10-2020 10:45:00 9.6 C 8.34 g/m*3 9.6 C 0 km/h
419 11-10-2020 10:50:00 9.6 C 8.24 g/m*3 9.6 C 1.6 km/h
420 11-10-2020 10:55:00 9.6 C 8.15 g/m*3 9.6 C 4.8 km/h
421 11-10-2020 11:00:00 9.4 C 7.87 g/m*3 9.4 C 4.8 km/h
422 11-10-2020 11:05:00 9.4 C 7.96 g/m*3 9.4 C 0 km/h
423 11-10-2020 11:10:00 9.4 C 7.96 g/m*3 9.4 C 0 km/h
424 11-10-2020 11:15:00 9.4 C 8.14 g/m*3 9.4 C 1.6 km/h
425 11-10-2020 11:20:00 9.4 C 8.14 g/m*3 9.4 C 0 km/h
Sensor: Nr:Datum:Temp:Abs-Feuchte:Windchill:Wind:
Aussen-T/F 426 11-10-2020 11:25:00 9.4 C 8.14 g/m*3 9.4 C 0 km/h
427 11-10-2020 11:30:00 9.4 C 8.14 g/m*3 9.4 C 1.6 km/h
428 11-10-2020 11:35:00 9.4 C 8.14 g/m*3 9.4 C 1.6 km/h
429 11-10-2020 11:40:00 9.5 C 8.19 g/m*3 9.5 C 0 km/h
430 11-10-2020 11:45:00 9.6 C 8.24 g/m*3 9.6 C 0 km/h
431 11-10-2020 11:50:00 9.7 C 8.3 g/m*3 9.7 C 0 km/h
432 11-10-2020 11:55:00 9.7 C 8.3 g/m*3 9.7 C 1.6 km/h
433 11-10-2020 12:00:00 9.8 C 8.44 g/m*3 9.8 C 3.2 km/h
434 11-10-2020 12:05:00 10 C 8.55 g/m*3 10 C 0 km/h
435 11-10-2020 12:10:00 10.2 C 8.56 g/m*3 10.2 C 0 km/h
436 11-10-2020 12:15:00 10.3 C 8.62 g/m*3 10.3 C 0 km/h
437 11-10-2020 12:20:00 10.6 C 8.39 g/m*3 10.06 C 6.4 km/h
438 11-10-2020 12:25:00 10.8 C 8.2 g/m*3 9.64 C 9.7 km/h
439 11-10-2020 12:30:00 10.9 C 8.26 g/m*3 10.41 C 6.4 km/h
440 11-10-2020 12:35:00 10.9 C 8.16 g/m*3 10.41 C 6.4 km/h
441 11-10-2020 12:40:00 10.8 C 8.01 g/m*3 9.64 C 9.7 km/h
442 11-10-2020 12:45:00 10.7 C 7.96 g/m*3 10.7 C 4.8 km/h
443 11-10-2020 12:50:00 10.6 C 7.91 g/m*3 10.6 C 3.2 km/h
444 11-10-2020 12:55:00 10.5 C 8.05 g/m*3 10.5 C 0 km/h
445 11-10-2020 13:00:00 10.4 C 8.1 g/m*3 10.4 C 0 km/h
446 11-10-2020 13:05:00 10.6 C 8.2 g/m*3 10.6 C 0 km/h
447 11-10-2020 13:10:00 10.8 C 8.11 g/m*3 10.8 C 0 km/h
448 11-10-2020 13:15:00 11.2 C 8.11 g/m*3 11.2 C 3.2 km/h
449 11-10-2020 13:20:00 11.7 C 8.37 g/m*3 11.7 C 3.2 km/h
450 11-10-2020 13:25:00 12.1 C 8.15 g/m*3 12.1 C 4.8 km/h
Sensor: Nr:Datum:Temp:Abs-Feuchte:Windchill:Wind:
Aussen-T/F 451 11-10-2020 13:30:00 12.1 C 7.94 g/m*3 12.1 C 8.1 km/h
452 11-10-2020 13:35:00 12.1 C 8.04 g/m*3 12.1 C 1.6 km/h
453 11-10-2020 13:40:00 12.1 C 8.15 g/m*3 12.1 C 4.8 km/h
454 11-10-2020 13:45:00 11.9 C 7.84 g/m*3 11.9 C 8.1 km/h
455 11-10-2020 13:50:00 11.8 C 7.58 g/m*3 11.8 C 6.4 km/h
456 11-10-2020 13:55:00 11.7 C 7.74 g/m*3 11.7 C 4.8 km/h
457 11-10-2020 14:00:00 11.7 C 7.74 g/m*3 11.7 C 0 km/h
458 11-10-2020 14:05:00 11.7 C 7.84 g/m*3 11.7 C 0 km/h
459 11-10-2020 14:10:00 11.7 C 7.64 g/m*3 11.7 C 1.6 km/h
460 11-10-2020 14:15:00 11.9 C 7.84 g/m*3 11.9 C 0 km/h
461 11-10-2020 14:20:00 12.2 C 7.99 g/m*3 12.2 C 6.4 km/h
462 11-10-2020 14:25:00 12.3 C 7.28 g/m*3 12.3 C 8.1 km/h
463 11-10-2020 14:30:00 12.7 C 7.35 g/m*3 12.7 C 4.8 km/h
464 11-10-2020 14:35:00 13 C 7.37 g/m*3 13 C 4.8 km/h
465 11-10-2020 14:40:00 13.2 C 7.58 g/m*3 13.2 C 11.3 km/h
466 11-10-2020 14:45:00 13.1 C 7.53 g/m*3 13.1 C 4.8 km/h
467 11-10-2020 14:50:00 12.9 C 7.33 g/m*3 12.9 C 8.1 km/h
468 11-10-2020 14:55:00 12.9 C 7.21 g/m*3 12.9 C 6.4 km/h
469 11-10-2020 15:00:00 12.9 C 7.33 g/m*3 12.9 C 8.1 km/h
470 11-10-2020 15:05:00 13 C 7.03 g/m*3 13 C 8.1 km/h
471 11-10-2020 15:10:00 13.1 C 7.42 g/m*3 13.1 C 3.2 km/h
472 11-10-2020 15:15:00 13.2 C 7.46 g/m*3 13.2 C 3.2 km/h
473 11-10-2020 15:20:00 13.2 C 7.46 g/m*3 13.2 C 4.8 km/h
474 11-10-2020 15:25:00 13.2 C 7.12 g/m*3 13.2 C 12.9 km/h
475 11-10-2020 15:30:00 13.1 C 6.96 g/m*3 13.1 C 11.3 km/h
Sensor: Nr:Datum:Temp:Abs-Feuchte:Windchill:Wind:
Aussen-T/F 476 11-10-2020 15:35:00 13.1 C 7.07 g/m*3 13.1 C 4.8 km/h
477 11-10-2020 15:40:00 13.1 C 7.07 g/m*3 13.1 C 6.4 km/h
478 11-10-2020 15:45:00 13.1 C 7.19 g/m*3 13.1 C 9.7 km/h
479 11-10-2020 15:50:00 13.1 C 7.19 g/m*3 13.1 C 12.9 km/h
480 11-10-2020 15:55:00 13 C 7.14 g/m*3 13 C 12.9 km/h
481 11-10-2020 16:00:00 12.9 C 7.33 g/m*3 12.9 C 11.3 km/h
482 11-10-2020 16:05:00 12.8 C 7.17 g/m*3 12.8 C 9.7 km/h
483 11-10-2020 16:10:00 12.8 C 7.17 g/m*3 12.8 C 9.7 km/h
484 11-10-2020 16:15:00 12.8 C 7.17 g/m*3 12.8 C 9.7 km/h
485 11-10-2020 16:20:00 12.9 C 7.21 g/m*3 12.9 C 11.3 km/h
486 11-10-2020 16:25:00 12.9 C 7.44 g/m*3 12.9 C 9.7 km/h
487 11-10-2020 16:30:00 13.1 C 7.42 g/m*3 13.1 C 9.7 km/h
488 11-10-2020 16:35:00 13.1 C 7.19 g/m*3 13.1 C 11.3 km/h
489 11-10-2020 16:40:00 13.1 C 7.42 g/m*3 13.1 C 9.7 km/h
490 11-10-2020 16:45:00 12.9 C 7.44 g/m*3 12.9 C 4.8 km/h
491 11-10-2020 16:50:00 12.8 C 7.28 g/m*3 12.8 C 6.4 km/h
492 11-10-2020 16:55:00 12.8 C 7.39 g/m*3 12.8 C 9.7 km/h
493 11-10-2020 17:00:00 12.7 C 7.35 g/m*3 12.7 C 6.4 km/h
494 11-10-2020 17:05:00 12.7 C 7.35 g/m*3 12.7 C 8.1 km/h
495 11-10-2020 17:10:00 12.7 C 7.35 g/m*3 12.7 C 6.4 km/h
496 11-10-2020 17:15:00 12.6 C 7.41 g/m*3 12.6 C 3.2 km/h
497 11-10-2020 17:20:00 12.6 C 7.52 g/m*3 12.6 C 1.6 km/h
498 11-10-2020 17:25:00 12.6 C 7.3 g/m*3 12.6 C 4.8 km/h
499 11-10-2020 17:30:00 12.6 C 7.41 g/m*3 12.6 C 1.6 km/h
500 11-10-2020 17:35:00 12.6 C 7.63 g/m*3 12.6 C 0 km/h
Sensor: Nr:Datum:Temp:Abs-Feuchte:Windchill:Wind:
Aussen-T/F 501 11-10-2020 17:40:00 12.6 C 7.85 g/m*3 12.6 C 1.6 km/h
502 11-10-2020 17:45:00 12.5 C 8.03 g/m*3 12.5 C 0 km/h
503 11-10-2020 17:50:00 12.4 C 8.19 g/m*3 12.4 C 0 km/h
504 11-10-2020 17:55:00 12.3 C 8.14 g/m*3 12.3 C 3.2 km/h
505 11-10-2020 18:00:00 12.2 C 8.42 g/m*3 12.2 C 1.6 km/h
506 11-10-2020 18:05:00 12.2 C 8.52 g/m*3 12.2 C 0 km/h
507 11-10-2020 18:10:00 12.2 C 8.74 g/m*3 12.2 C 0 km/h
508 11-10-2020 18:15:00 12.3 C 8.58 g/m*3 12.3 C 1.6 km/h
509 11-10-2020 18:20:00 12.3 C 8.58 g/m*3 12.3 C 3.2 km/h
510 11-10-2020 18:25:00 12.2 C 8.52 g/m*3 12.2 C 3.2 km/h
511 11-10-2020 18:30:00 12.1 C 8.47 g/m*3 12.1 C 1.6 km/h
512 11-10-2020 18:35:00 11.9 C 8.26 g/m*3 11.9 C 1.6 km/h
513 11-10-2020 18:40:00 11.7 C 8.16 g/m*3 11.7 C 3.2 km/h
514 11-10-2020 18:45:00 11.4 C 8.11 g/m*3 11.4 C 3.2 km/h
515 11-10-2020 18:50:00 11.1 C 7.96 g/m*3 11.1 C 4.8 km/h
516 11-10-2020 18:55:00 10.8 C 7.81 g/m*3 10.8 C 4.8 km/h
517 11-10-2020 19:00:00 10.5 C 7.76 g/m*3 10.5 C 4.8 km/h
518 11-10-2020 19:05:00 10.3 C 7.66 g/m*3 10.3 C 3.2 km/h
519 11-10-2020 19:10:00 10.1 C 7.56 g/m*3 10.1 C 4.8 km/h
520 11-10-2020 19:15:00 9.9 C 7.66 g/m*3 9.9 C 4.8 km/h
521 11-10-2020 19:20:00 9.8 C 7.7 g/m*3 9.8 C 4.8 km/h
522 11-10-2020 19:25:00 9.8 C 7.79 g/m*3 9.8 C 3.2 km/h
523 11-10-2020 19:30:00 9.7 C 7.74 g/m*3 9.7 C 1.6 km/h
524 11-10-2020 19:35:00 9.7 C 7.74 g/m*3 9.7 C 4.8 km/h
525 11-10-2020 19:40:00 9.7 C 7.74 g/m*3 9.7 C 3.2 km/h
Sensor: Nr:Datum:Temp:Abs-Feuchte:Windchill:Wind:
Aussen-T/F 526 11-10-2020 19:45:00 9.8 C 7.79 g/m*3 9.8 C 3.2 km/h
527 11-10-2020 19:50:00 9.8 C 7.7 g/m*3 9.8 C 0 km/h
528 11-10-2020 19:55:00 9.9 C 7.84 g/m*3 9.9 C 3.2 km/h
529 11-10-2020 20:00:00 9.9 C 7.84 g/m*3 9.9 C 4.8 km/h
530 11-10-2020 20:05:00 9.9 C 7.84 g/m*3 9.9 C 4.8 km/h
531 11-10-2020 20:10:00 9.9 C 7.84 g/m*3 9.9 C 3.2 km/h
532 11-10-2020 20:15:00 9.9 C 7.94 g/m*3 9.9 C 0 km/h
533 11-10-2020 20:20:00 9.9 C 7.84 g/m*3 8.87 C 8.1 km/h
534 11-10-2020 20:25:00 10.2 C 7.71 g/m*3 8.22 C 14.5 km/h
535 11-10-2020 20:30:00 10.5 C 7.95 g/m*3 9.57 C 8.1 km/h
536 11-10-2020 20:35:00 10.6 C 8.1 g/m*3 9.69 C 8.1 km/h
537 11-10-2020 20:40:00 10.6 C 8.3 g/m*3 10.6 C 3.2 km/h
538 11-10-2020 20:45:00 10.5 C 8.24 g/m*3 10.5 C 3.2 km/h
539 11-10-2020 20:50:00 10.4 C 8.29 g/m*3 10.4 C 4.8 km/h
540 11-10-2020 20:55:00 10.2 C 8.28 g/m*3 10.2 C 4.8 km/h
541 11-10-2020 21:00:00 10.1 C 8.32 g/m*3 9.1 C 8.1 km/h
542 11-10-2020 21:05:00 9.9 C 8.22 g/m*3 9.9 C 4.8 km/h
543 11-10-2020 21:10:00 9.8 C 8.26 g/m*3 9.8 C 4.8 km/h
544 11-10-2020 21:15:00 9.7 C 8.2 g/m*3 9.7 C 4.8 km/h
545 11-10-2020 21:20:00 9.6 C 8.15 g/m*3 8.91 C 6.4 km/h
546 11-10-2020 21:25:00 9.5 C 8.19 g/m*3 9.5 C 4.8 km/h
547 11-10-2020 21:30:00 9.4 C 8.14 g/m*3 8.68 C 6.4 km/h
548 11-10-2020 21:35:00 9.4 C 8.23 g/m*3 9.4 C 4.8 km/h
549 11-10-2020 21:40:00 9.3 C 8.18 g/m*3 9.3 C 4.8 km/h
550 11-10-2020 21:45:00 9.2 C 8.13 g/m*3 9.2 C 0 km/h
Sensor: Nr:Datum:Temp:Abs-Feuchte:Windchill:Wind:
Aussen-T/F 551 11-10-2020 21:50:00 9.2 C 8.13 g/m*3 9.2 C 1.6 km/h
552 11-10-2020 21:55:00 9.1 C 8.07 g/m*3 9.1 C 3.2 km/h
553 11-10-2020 22:00:00 9.1 C 8.16 g/m*3 9.1 C 3.2 km/h
554 11-10-2020 22:05:00 9.1 C 8.16 g/m*3 9.1 C 1.6 km/h
555 11-10-2020 22:10:00 9.1 C 8.16 g/m*3 9.1 C 1.6 km/h
556 11-10-2020 22:15:00 9.1 C 8.16 g/m*3 9.1 C 0 km/h
557 11-10-2020 22:20:00 9.1 C 8.16 g/m*3 9.1 C 1.6 km/h
558 11-10-2020 22:25:00 9.1 C 8.25 g/m*3 9.1 C 0 km/h
559 11-10-2020 22:30:00 9.1 C 8.25 g/m*3 9.1 C 3.2 km/h
560 11-10-2020 22:35:00 9.2 C 8.3 g/m*3 9.2 C 0 km/h
561 11-10-2020 22:40:00 9.2 C 8.3 g/m*3 9.2 C 0 km/h
562 11-10-2020 22:45:00 9.2 C 8.3 g/m*3 9.2 C 3.2 km/h
563 11-10-2020 22:50:00 9.2 C 8.3 g/m*3 9.2 C 1.6 km/h
564 11-10-2020 22:55:00 9.2 C 8.3 g/m*3 9.2 C 1.6 km/h
565 11-10-2020 23:00:00 9.2 C 8.3 g/m*3 9.2 C 3.2 km/h
566 11-10-2020 23:05:00 9.2 C 8.3 g/m*3 9.2 C 0 km/h
567 11-10-2020 23:10:00 9.2 C 8.3 g/m*3 9.2 C 3.2 km/h
568 11-10-2020 23:15:00 9.2 C 8.39 g/m*3 9.2 C 1.6 km/h
569 11-10-2020 23:20:00 9.2 C 8.39 g/m*3 9.2 C 0 km/h
570 11-10-2020 23:25:00 9.1 C 8.25 g/m*3 9.1 C 3.2 km/h
571 11-10-2020 23:30:00 9.1 C 8.25 g/m*3 9.1 C 3.2 km/h
572 11-10-2020 23:35:00 9.1 C 8.34 g/m*3 9.1 C 1.6 km/h
573 11-10-2020 23:40:00 9.1 C 8.34 g/m*3 9.1 C 1.6 km/h
574 11-10-2020 23:45:00 9.1 C 8.34 g/m*3 9.1 C 1.6 km/h
575 11-10-2020 23:50:00 9.1 C 8.34 g/m*3 9.1 C 0 km/h
Sensor: Nr:Datum:Temp:Abs-Feuchte:Windchill:Wind:
Aussen-T/F 576 11-10-2020 23:55:00 9.1 C 8.34 g/m*3 9.1 C 0 km/h
577 12-10-2020 00:00:00 9.2 C 8.39 g/m*3 9.2 C 4.8 km/h
578 12-10-2020 00:05:00 9.2 C 8.39 g/m*3 9.2 C 1.6 km/h
579 12-10-2020 00:10:00 9.2 C 8.39 g/m*3 9.2 C 1.6 km/h
580 12-10-2020 00:15:00 9.2 C 8.39 g/m*3 9.2 C 1.6 km/h
581 12-10-2020 00:20:00 9.2 C 8.39 g/m*3 9.2 C 1.6 km/h
582 12-10-2020 00:25:00 9.2 C 8.39 g/m*3 9.2 C 3.2 km/h
583 12-10-2020 00:30:00 9.1 C 8.34 g/m*3 9.1 C 0 km/h
584 12-10-2020 00:35:00 9.1 C 8.34 g/m*3 9.1 C 0 km/h
585 12-10-2020 00:40:00 9 C 8.29 g/m*3 9 C 1.6 km/h
586 12-10-2020 00:45:00 9 C 8.29 g/m*3 9 C 0 km/h
587 12-10-2020 00:50:00 9.1 C 8.34 g/m*3 9.1 C 3.2 km/h
588 12-10-2020 00:55:00 9.1 C 8.34 g/m*3 9.1 C 4.8 km/h
589 12-10-2020 01:00:00 9.1 C 8.34 g/m*3 9.1 C 3.2 km/h
590 12-10-2020 01:05:00 9.1 C 8.34 g/m*3 9.1 C 3.2 km/h
591 12-10-2020 01:10:00 9.2 C 8.48 g/m*3 9.2 C 4.8 km/h
592 12-10-2020 01:15:00 9.1 C 8.34 g/m*3 9.1 C 3.2 km/h
593 12-10-2020 01:20:00 9.1 C 8.34 g/m*3 9.1 C 0 km/h
594 12-10-2020 01:25:00 9.1 C 8.34 g/m*3 9.1 C 4.8 km/h
595 12-10-2020 01:30:00 9 C 8.29 g/m*3 9 C 1.6 km/h
596 12-10-2020 01:35:00 8.9 C 8.23 g/m*3 8.9 C 0 km/h
597 12-10-2020 01:40:00 8.9 C 8.32 g/m*3 8.9 C 0 km/h
598 12-10-2020 01:45:00 8.9 C 8.32 g/m*3 8.9 C 0 km/h
599 12-10-2020 01:50:00 8.9 C 8.32 g/m*3 8.9 C 0 km/h
600 12-10-2020 01:55:00 8.9 C 8.32 g/m*3 8.9 C 1.6 km/h
Sensor: Nr:Datum:Temp:Abs-Feuchte:Windchill:Wind:
Aussen-T/F 601 12-10-2020 02:00:00 9 C 8.38 g/m*3 9 C 0 km/h
602 12-10-2020 02:05:00 9 C 8.38 g/m*3 9 C 0 km/h
603 12-10-2020 02:10:00 9.1 C 8.43 g/m*3 9.1 C 0 km/h
604 12-10-2020 02:15:00 9.1 C 8.43 g/m*3 9.1 C 0 km/h
605 12-10-2020 02:20:00 9.1 C 8.43 g/m*3 9.1 C 0 km/h
606 12-10-2020 02:25:00 9.1 C 8.43 g/m*3 9.1 C 0 km/h
607 12-10-2020 02:30:00 9.1 C 8.43 g/m*3 9.1 C 1.6 km/h
608 12-10-2020 02:35:00 9.1 C 8.43 g/m*3 9.1 C 1.6 km/h
609 12-10-2020 02:40:00 9.1 C 8.43 g/m*3 9.1 C 0 km/h
610 12-10-2020 02:45:00 9.1 C 8.43 g/m*3 9.1 C 0 km/h
611 12-10-2020 02:50:00 9.1 C 8.43 g/m*3 9.1 C 1.6 km/h
612 12-10-2020 02:55:00 9.1 C 8.43 g/m*3 9.1 C 0 km/h
613 12-10-2020 03:00:00 9.1 C 8.43 g/m*3 9.1 C 0 km/h
614 12-10-2020 03:05:00 9 C 8.38 g/m*3 9 C 0 km/h
615 12-10-2020 03:10:00 9 C 8.38 g/m*3 9 C 0 km/h
616 12-10-2020 03:15:00 9 C 8.38 g/m*3 9 C 0 km/h
617 12-10-2020 03:20:00 9 C 8.38 g/m*3 9 C 0 km/h
618 12-10-2020 03:25:00 8.9 C 8.32 g/m*3 8.9 C 0 km/h
619 12-10-2020 03:30:00 8.9 C 8.32 g/m*3 8.9 C 1.6 km/h
620 12-10-2020 03:35:00 8.9 C 8.32 g/m*3 8.9 C 0 km/h
621 12-10-2020 03:40:00 8.9 C 8.32 g/m*3 8.9 C 0 km/h
622 12-10-2020 03:45:00 8.9 C 8.32 g/m*3 8.9 C 0 km/h
623 12-10-2020 03:50:00 8.9 C 8.32 g/m*3 8.9 C 0 km/h
624 12-10-2020 03:55:00 8.9 C 8.32 g/m*3 8.9 C 0 km/h
625 12-10-2020 04:00:00 8.9 C 8.32 g/m*3 8.9 C 0 km/h
Sensor: Nr:Datum:Temp:Abs-Feuchte:Windchill:Wind:
Aussen-T/F 626 12-10-2020 04:05:00 8.9 C 8.32 g/m*3 8.9 C 0 km/h
627 12-10-2020 04:10:00 8.9 C 8.32 g/m*3 8.9 C 0 km/h
628 12-10-2020 04:15:00 8.9 C 8.32 g/m*3 8.9 C 0 km/h
629 12-10-2020 04:20:00 8.9 C 8.32 g/m*3 8.9 C 0 km/h
630 12-10-2020 04:25:00 8.9 C 8.32 g/m*3 8.9 C 1.6 km/h
631 12-10-2020 04:30:00 8.9 C 8.32 g/m*3 8.9 C 0 km/h
632 12-10-2020 04:35:00 8.9 C 8.32 g/m*3 8.9 C 0 km/h
633 12-10-2020 04:40:00 8.9 C 8.32 g/m*3 8.9 C 1.6 km/h
634 12-10-2020 04:45:00 8.9 C 8.32 g/m*3 8.9 C 0 km/h
635 12-10-2020 04:50:00 8.9 C 8.32 g/m*3 8.9 C 0 km/h
636 12-10-2020 04:55:00 8.9 C 8.32 g/m*3 8.9 C 0 km/h
637 12-10-2020 05:00:00 8.9 C 8.32 g/m*3 8.9 C 0 km/h
638 12-10-2020 05:05:00 8.9 C 8.32 g/m*3 8.9 C 1.6 km/h
639 12-10-2020 05:10:00 8.9 C 8.32 g/m*3 8.9 C 0 km/h
640 12-10-2020 05:15:00 8.9 C 8.32 g/m*3 8.9 C 0 km/h
641 12-10-2020 05:20:00 8.9 C 8.32 g/m*3 8.9 C 0 km/h
642 12-10-2020 05:25:00 8.9 C 8.32 g/m*3 8.9 C 0 km/h
643 12-10-2020 05:30:00 8.9 C 8.32 g/m*3 8.9 C 0 km/h
644 12-10-2020 05:35:00 8.9 C 8.32 g/m*3 8.9 C 0 km/h
645 12-10-2020 05:40:00 8.9 C 8.32 g/m*3 8.9 C 0 km/h
646 12-10-2020 05:45:00 8.9 C 8.32 g/m*3 8.9 C 3.2 km/h
647 12-10-2020 05:50:00 8.9 C 8.32 g/m*3 8.9 C 3.2 km/h
648 12-10-2020 05:55:00 8.8 C 8.27 g/m*3 8.8 C 1.6 km/h
649 12-10-2020 06:00:00 8.8 C 8.27 g/m*3 8.8 C 1.6 km/h
650 12-10-2020 06:05:00 8.8 C 8.27 g/m*3 8.8 C 1.6 km/h
Sensor: Nr:Datum:Temp:Abs-Feuchte:Windchill:Wind:
Aussen-T/F 651 12-10-2020 06:10:00 8.8 C 8.27 g/m*3 7.98 C 6.4 km/h
652 12-10-2020 06:15:00 8.8 C 8.27 g/m*3 8.8 C 1.6 km/h
653 12-10-2020 06:20:00 8.7 C 8.22 g/m*3 8.7 C 0 km/h
654 12-10-2020 06:25:00 8.7 C 8.22 g/m*3 8.7 C 0 km/h
655 12-10-2020 06:30:00 8.6 C 8.16 g/m*3 8.6 C 1.6 km/h
656 12-10-2020 06:35:00 8.6 C 8.16 g/m*3 8.6 C 0 km/h
657 12-10-2020 06:40:00 8.6 C 8.16 g/m*3 8.6 C 1.6 km/h
658 12-10-2020 06:45:00 8.6 C 8.16 g/m*3 8.6 C 0 km/h
659 12-10-2020 06:50:00 8.6 C 8.16 g/m*3 8.6 C 3.2 km/h
660 12-10-2020 06:55:00 8.7 C 8.22 g/m*3 8.7 C 1.6 km/h
661 12-10-2020 07:00:00 8.7 C 8.22 g/m*3 8.7 C 3.2 km/h
662 12-10-2020 07:05:00 8.7 C 8.22 g/m*3 8.7 C 3.2 km/h
663 12-10-2020 07:10:00 8.7 C 8.22 g/m*3 8.7 C 0 km/h
664 12-10-2020 07:15:00 8.7 C 8.22 g/m*3 8.7 C 0 km/h
665 12-10-2020 07:20:00 8.7 C 8.22 g/m*3 8.7 C 0 km/h
666 12-10-2020 07:25:00 8.7 C 8.22 g/m*3 8.7 C 0 km/h
667 12-10-2020 07:30:00 8.7 C 8.3 g/m*3 8.7 C 0 km/h
668 12-10-2020 07:35:00 8.8 C 8.36 g/m*3 8.8 C 0 km/h
669 12-10-2020 07:40:00 8.7 C 8.3 g/m*3 8.7 C 1.6 km/h
670 12-10-2020 07:45:00 8.7 C 8.22 g/m*3 8.7 C 4.8 km/h
671 12-10-2020 07:50:00 8.7 C 8.22 g/m*3 8.7 C 0 km/h
672 12-10-2020 07:55:00 8.8 C 8.27 g/m*3 8.8 C 0 km/h
673 12-10-2020 08:00:00 8.8 C 8.27 g/m*3 8.8 C 3.2 km/h
674 12-10-2020 08:05:00 8.8 C 8.27 g/m*3 8.8 C 0 km/h
675 12-10-2020 08:10:00 8.8 C 8.27 g/m*3 8.8 C 0 km/h
Sensor: Nr:Datum:Temp:Abs-Feuchte:Windchill:Wind:
Aussen-T/F 676 12-10-2020 08:15:00 8.8 C 8.27 g/m*3 8.8 C 0 km/h
677 12-10-2020 08:20:00 8.8 C 8.27 g/m*3 8.8 C 0 km/h
678 12-10-2020 08:25:00 8.8 C 8.27 g/m*3 8.8 C 0 km/h
679 12-10-2020 08:30:00 8.8 C 8.36 g/m*3 8.8 C 1.6 km/h
680 12-10-2020 08:35:00 8.8 C 8.27 g/m*3 8.8 C 1.6 km/h
681 12-10-2020 08:40:00 8.8 C 8.27 g/m*3 8.8 C 1.6 km/h
682 12-10-2020 08:45:00 8.8 C 8.27 g/m*3 8.8 C 0 km/h
683 12-10-2020 08:50:00 8.8 C 8.27 g/m*3 8.8 C 0 km/h
684 12-10-2020 08:55:00 8.9 C 8.32 g/m*3 8.9 C 0 km/h
685 12-10-2020 09:00:00 8.9 C 8.32 g/m*3 8.9 C 0 km/h
686 12-10-2020 09:05:00 8.9 C 8.32 g/m*3 8.9 C 0 km/h
687 12-10-2020 09:10:00 9 C 8.38 g/m*3 9 C 0 km/h
688 12-10-2020 09:15:00 9.1 C 8.43 g/m*3 9.1 C 0 km/h
689 12-10-2020 09:20:00 9.1 C 8.52 g/m*3 9.1 C 0 km/h
690 12-10-2020 09:25:00 9.2 C 8.57 g/m*3 9.2 C 0 km/h
691 12-10-2020 09:30:00 9.2 C 8.57 g/m*3 9.2 C 1.6 km/h
692 12-10-2020 09:35:00 9.3 C 8.63 g/m*3 9.3 C 0 km/h
693 12-10-2020 09:40:00 9.3 C 8.54 g/m*3 9.3 C 3.2 km/h
694 12-10-2020 09:45:00 9.3 C 8.54 g/m*3 9.3 C 3.2 km/h
695 12-10-2020 09:50:00 9.3 C 8.54 g/m*3 9.3 C 0 km/h
696 12-10-2020 09:55:00 9.4 C 8.59 g/m*3 9.4 C 1.6 km/h
697 12-10-2020 10:00:00 9.4 C 8.59 g/m*3 8.68 C 6.4 km/h
698 12-10-2020 10:05:00 9.3 C 8.54 g/m*3 8.56 C 6.4 km/h
699 12-10-2020 10:10:00 9.3 C 8.54 g/m*3 9.3 C 3.2 km/h
700 12-10-2020 10:15:00 9.3 C 8.54 g/m*3 8.56 C 6.4 km/h
Sensor: Nr:Datum:Temp:Abs-Feuchte:Windchill:Wind:
Aussen-T/F 701 12-10-2020 10:20:00 9.4 C 8.59 g/m*3 9.4 C 4.8 km/h
702 12-10-2020 10:25:00 9.6 C 8.7 g/m*3 9.6 C 3.2 km/h
703 12-10-2020 10:30:00 9.7 C 8.76 g/m*3 9.7 C 4.8 km/h
704 12-10-2020 10:35:00 9.8 C 8.72 g/m*3 9.8 C 4.8 km/h
705 12-10-2020 10:40:00 9.8 C 8.72 g/m*3 9.14 C 6.4 km/h
706 12-10-2020 10:45:00 9.9 C 8.78 g/m*3 9.9 C 3.2 km/h
707 12-10-2020 10:50:00 10.1 C 8.89 g/m*3 10.1 C 1.6 km/h
708 12-10-2020 10:55:00 10.1 C 8.89 g/m*3 10.1 C 3.2 km/h
709 12-10-2020 11:00:00 10.2 C 8.85 g/m*3 10.2 C 3.2 km/h
710 12-10-2020 11:05:00 10.3 C 8.91 g/m*3 10.3 C 4.8 km/h
711 12-10-2020 11:10:00 10.3 C 8.91 g/m*3 10.3 C 3.2 km/h
712 12-10-2020 11:15:00 10.4 C 8.87 g/m*3 10.4 C 4.8 km/h
713 12-10-2020 11:20:00 10.5 C 8.92 g/m*3 10.5 C 3.2 km/h
714 12-10-2020 11:25:00 10.5 C 8.83 g/m*3 10.5 C 0 km/h
715 12-10-2020 11:30:00 10.6 C 8.88 g/m*3 10.6 C 3.2 km/h
716 12-10-2020 11:35:00 10.7 C 8.94 g/m*3 10.7 C 3.2 km/h
717 12-10-2020 11:40:00 10.9 C 9.05 g/m*3 10.9 C 1.6 km/h
718 12-10-2020 11:45:00 11.2 C 9.12 g/m*3 11.2 C 6.4 km/h
719 12-10-2020 11:50:00 11.3 C 9.08 g/m*3 11.3 C 1.6 km/h
720 12-10-2020 11:55:00 11.3 C 9.08 g/m*3 11.3 C 1.6 km/h
721 12-10-2020 12:00:00 11.4 C 9.03 g/m*3 11.4 C 3.2 km/h
722 12-10-2020 12:05:00 11.3 C 8.87 g/m*3 11.3 C 4.8 km/h
723 12-10-2020 12:10:00 11.3 C 8.87 g/m*3 11.3 C 0 km/h
724 12-10-2020 12:15:00 11.4 C 8.93 g/m*3 11.4 C 0 km/h
725 12-10-2020 12:20:00 11.5 C 8.99 g/m*3 11.5 C 3.2 km/h
Sensor: Nr:Datum:Temp:Abs-Feuchte:Windchill:Wind:
Aussen-T/F 726 12-10-2020 12:25:00 11.6 C 9.04 g/m*3 11.6 C 4.8 km/h
727 12-10-2020 12:30:00 11.6 C 9.04 g/m*3 11.6 C 4.8 km/h
728 12-10-2020 12:35:00 11.7 C 9.1 g/m*3 11.7 C 4.8 km/h
729 12-10-2020 12:40:00 11.7 C 8.89 g/m*3 11.7 C 4.8 km/h
730 12-10-2020 12:45:00 11.8 C 9.05 g/m*3 11.8 C 1.6 km/h
731 12-10-2020 12:50:00 12.1 C 9.01 g/m*3 12.1 C 6.4 km/h
732 12-10-2020 12:55:00 12.2 C 9.06 g/m*3 12.2 C 1.6 km/h
733 12-10-2020 13:00:00 12.3 C 9.01 g/m*3 12.3 C 8.1 km/h
734 12-10-2020 13:05:00 12.4 C 9.07 g/m*3 12.4 C 4.8 km/h
735 12-10-2020 13:10:00 12.4 C 9.07 g/m*3 12.4 C 6.4 km/h
736 12-10-2020 13:15:00 12.3 C 8.8 g/m*3 12.3 C 8.1 km/h
737 12-10-2020 13:20:00 12.4 C 8.96 g/m*3 12.4 C 6.4 km/h
738 12-10-2020 13:25:00 12.3 C 8.69 g/m*3 12.3 C 8.1 km/h
739 12-10-2020 13:30:00 12.3 C 8.8 g/m*3 12.3 C 4.8 km/h
740 12-10-2020 13:35:00 12.2 C 8.74 g/m*3 12.2 C 8.1 km/h
741 12-10-2020 13:40:00 12.2 C 8.85 g/m*3 12.2 C 8.1 km/h
742 12-10-2020 13:45:00 12.2 C 8.96 g/m*3 12.2 C 4.8 km/h
743 12-10-2020 13:50:00 12.2 C 8.96 g/m*3 12.2 C 3.2 km/h
744 12-10-2020 13:55:00 12.2 C 8.96 g/m*3 12.2 C 4.8 km/h
745 12-10-2020 14:00:00 12.2 C 8.85 g/m*3 12.2 C 8.1 km/h
746 12-10-2020 14:05:00 12.3 C 8.9 g/m*3 12.3 C 9.7 km/h
747 12-10-2020 14:10:00 12.3 C 8.9 g/m*3 12.3 C 11.3 km/h
748 12-10-2020 14:15:00 12.3 C 9.01 g/m*3 12.3 C 6.4 km/h
749 12-10-2020 14:20:00 12.2 C 8.85 g/m*3 12.2 C 4.8 km/h
750 12-10-2020 14:25:00 12.2 C 9.06 g/m*3 12.2 C 6.4 km/h
Sensor: Nr:Datum:Temp:Abs-Feuchte:Windchill:Wind:
Aussen-T/F 751 12-10-2020 14:30:00 12.2 C 9.06 g/m*3 12.2 C 3.2 km/h
752 12-10-2020 14:35:00 12.2 C 8.96 g/m*3 12.2 C 4.8 km/h
753 12-10-2020 14:40:00 12.2 C 9.06 g/m*3 12.2 C 8.1 km/h
754 12-10-2020 14:45:00 12.2 C 9.06 g/m*3 12.2 C 3.2 km/h
755 12-10-2020 14:50:00 12.3 C 9.12 g/m*3 12.3 C 3.2 km/h
756 12-10-2020 14:55:00 12.3 C 9.01 g/m*3 12.3 C 9.7 km/h
757 12-10-2020 15:00:00 12.3 C 9.01 g/m*3 12.3 C 1.6 km/h
758 12-10-2020 15:05:00 12.4 C 8.85 g/m*3 12.4 C 9.7 km/h
759 12-10-2020 15:10:00 12.4 C 8.85 g/m*3 12.4 C 4.8 km/h
760 12-10-2020 15:15:00 12.5 C 8.91 g/m*3 12.5 C 6.4 km/h
761 12-10-2020 15:20:00 12.7 C 9.13 g/m*3 12.7 C 4.8 km/h
762 12-10-2020 15:25:00 12.7 C 8.79 g/m*3 12.7 C 9.7 km/h
763 12-10-2020 15:30:00 12.7 C 8.91 g/m*3 12.7 C 12.9 km/h
764 12-10-2020 15:35:00 12.4 C 8.74 g/m*3 12.4 C 14.5 km/h
765 12-10-2020 15:40:00 11.9 C 8.58 g/m*3 11.9 C 16.1 km/h
766 12-10-2020 15:45:00 11.6 C 8.63 g/m*3 11.6 C 4.8 km/h
767 12-10-2020 15:50:00 11.4 C 8.83 g/m*3 11.4 C 6.4 km/h
768 12-10-2020 15:55:00 11.3 C 8.77 g/m*3 11.3 C 8.1 km/h
769 12-10-2020 16:00:00 11.1 C 8.76 g/m*3 11.1 C 4.8 km/h
770 12-10-2020 16:05:00 10.9 C 8.65 g/m*3 10.9 C 1.6 km/h
771 12-10-2020 16:10:00 10.9 C 8.75 g/m*3 10.9 C 1.6 km/h
772 12-10-2020 16:15:00 10.9 C 8.95 g/m*3 10.41 C 6.4 km/h
773 12-10-2020 16:20:00 11 C 9.01 g/m*3 11 C 3.2 km/h
774 12-10-2020 16:25:00 10.9 C 8.85 g/m*3 10.9 C 4.8 km/h
775 12-10-2020 16:30:00 10.9 C 8.95 g/m*3 10.9 C 3.2 km/h
Sensor: Nr:Datum:Temp:Abs-Feuchte:Windchill:Wind:
Aussen-T/F 776 12-10-2020 16:35:00 11.1 C 9.17 g/m*3 11.1 C 1.6 km/h
777 12-10-2020 16:40:00 11.2 C 9.22 g/m*3 11.2 C 1.6 km/h
778 12-10-2020 16:45:00 11.2 C 9.22 g/m*3 11.2 C 0 km/h
779 12-10-2020 16:50:00 11.3 C 9.28 g/m*3 11.3 C 0 km/h
780 12-10-2020 16:55:00 11.4 C 9.24 g/m*3 11.4 C 1.6 km/h
781 12-10-2020 17:00:00 11.3 C 8.98 g/m*3 11.3 C 0 km/h
782 12-10-2020 17:05:00 11.4 C 9.14 g/m*3 11.4 C 3.2 km/h
783 12-10-2020 17:10:00 11.6 C 9.25 g/m*3 11.6 C 1.6 km/h
784 12-10-2020 17:15:00 11.6 C 9.15 g/m*3 11.6 C 0 km/h
785 12-10-2020 17:20:00 11.7 C 9.2 g/m*3 11.7 C 4.8 km/h
786 12-10-2020 17:25:00 11.7 C 8.79 g/m*3 11.7 C 4.8 km/h
787 12-10-2020 17:30:00 11.8 C 8.95 g/m*3 11.8 C 0 km/h
788 12-10-2020 17:35:00 12 C 9.17 g/m*3 12 C 0 km/h
789 12-10-2020 17:40:00 12.2 C 9.28 g/m*3 12.2 C 0 km/h
790 12-10-2020 17:45:00 12.2 C 9.17 g/m*3 12.2 C 1.6 km/h
791 12-10-2020 17:50:00 12.1 C 9.12 g/m*3 12.1 C 1.6 km/h
792 12-10-2020 17:55:00 11.9 C 9 g/m*3 11.9 C 1.6 km/h
793 12-10-2020 18:00:00 11.8 C 8.95 g/m*3 11.8 C 3.2 km/h
794 12-10-2020 18:05:00 11.7 C 8.89 g/m*3 11.7 C 1.6 km/h
795 12-10-2020 18:10:00 11.4 C 8.72 g/m*3 11.4 C 3.2 km/h
796 12-10-2020 18:15:00 11.3 C 8.67 g/m*3 11.3 C 6.4 km/h
797 12-10-2020 18:20:00 11.1 C 8.66 g/m*3 11.1 C 6.4 km/h
798 12-10-2020 18:25:00 10.9 C 8.55 g/m*3 10.41 C 6.4 km/h
799 12-10-2020 18:30:00 10.6 C 8.3 g/m*3 9.69 C 8.1 km/h
800 12-10-2020 18:35:00 10.3 C 8.24 g/m*3 10.3 C 3.2 km/h
Sensor: Nr:Datum:Temp:Abs-Feuchte:Windchill:Wind:
Aussen-T/F 801 12-10-2020 18:40:00 10.1 C 8.13 g/m*3 10.1 C 4.8 km/h
802 12-10-2020 18:45:00 9.8 C 8.07 g/m*3 9.14 C 6.4 km/h
803 12-10-2020 18:50:00 9.6 C 8.06 g/m*3 9.6 C 4.8 km/h
804 12-10-2020 18:55:00 9.4 C 7.96 g/m*3 9.4 C 0 km/h
805 12-10-2020 19:00:00 9.3 C 7.91 g/m*3 9.3 C 1.6 km/h
806 12-10-2020 19:05:00 9.1 C 7.9 g/m*3 9.1 C 1.6 km/h
807 12-10-2020 19:10:00 8.9 C 7.8 g/m*3 8.9 C 3.2 km/h
808 12-10-2020 19:15:00 8.7 C 7.7 g/m*3 8.7 C 1.6 km/h
809 12-10-2020 19:20:00 8.5 C 7.6 g/m*3 8.5 C 1.6 km/h
810 12-10-2020 19:25:00 8.3 C 7.5 g/m*3 8.3 C 4.8 km/h
811 12-10-2020 19:30:00 8.1 C 7.49 g/m*3 8.1 C 3.2 km/h
812 12-10-2020 19:35:00 8 C 7.44 g/m*3 8 C 0 km/h
813 12-10-2020 19:40:00 7.8 C 7.35 g/m*3 7.8 C 3.2 km/h
814 12-10-2020 19:45:00 7.7 C 7.3 g/m*3 7.7 C 1.6 km/h
815 12-10-2020 19:50:00 7.6 C 7.33 g/m*3 7.6 C 1.6 km/h
816 12-10-2020 19:55:00 7.6 C 7.33 g/m*3 7.6 C 0 km/h
817 12-10-2020 20:00:00 7.5 C 7.28 g/m*3 7.5 C 0 km/h
818 12-10-2020 20:05:00 7.4 C 7.24 g/m*3 7.4 C 0 km/h
819 12-10-2020 20:10:00 7.3 C 7.27 g/m*3 7.3 C 0 km/h
820 12-10-2020 20:15:00 7.3 C 7.27 g/m*3 7.3 C 0 km/h
821 12-10-2020 20:20:00 7.2 C 7.22 g/m*3 7.2 C 0 km/h
822 12-10-2020 20:25:00 7.2 C 7.22 g/m*3 7.2 C 0 km/h
823 12-10-2020 20:30:00 7.1 C 7.18 g/m*3 7.1 C 0 km/h
824 12-10-2020 20:35:00 7 C 7.13 g/m*3 7 C 0 km/h
825 12-10-2020 20:40:00 6.9 C 7.08 g/m*3 6.9 C 0 km/h
Sensor: Nr:Datum:Temp:Abs-Feuchte:Windchill:Wind:
Aussen-T/F 826 12-10-2020 20:45:00 6.9 C 7.16 g/m*3 6.9 C 0 km/h
827 12-10-2020 20:50:00 6.8 C 7.11 g/m*3 6.8 C 0 km/h
828 12-10-2020 20:55:00 6.7 C 7.07 g/m*3 6.7 C 0 km/h
829 12-10-2020 21:00:00 6.7 C 7.07 g/m*3 6.7 C 0 km/h
830 12-10-2020 21:05:00 6.7 C 7.07 g/m*3 6.7 C 1.6 km/h
831 12-10-2020 21:10:00 6.6 C 7.02 g/m*3 6.6 C 1.6 km/h
832 12-10-2020 21:15:00 6.6 C 7.1 g/m*3 6.6 C 1.6 km/h
833 12-10-2020 21:20:00 6.6 C 7.02 g/m*3 6.6 C 0 km/h
834 12-10-2020 21:25:00 6.5 C 7.05 g/m*3 6.5 C 0 km/h
835 12-10-2020 21:30:00 6.5 C 7.05 g/m*3 6.5 C 0 km/h
836 12-10-2020 21:35:00 6.5 C 7.05 g/m*3 6.5 C 0 km/h
837 12-10-2020 21:40:00 6.5 C 7.05 g/m*3 6.5 C 0 km/h
838 12-10-2020 21:45:00 6.5 C 7.05 g/m*3 6.5 C 1.6 km/h
839 12-10-2020 21:50:00 6.5 C 7.05 g/m*3 6.5 C 0 km/h
840 12-10-2020 21:55:00 6.4 C 7 g/m*3 6.4 C 0 km/h
841 12-10-2020 22:00:00 6.3 C 6.96 g/m*3 6.3 C 0 km/h
842 12-10-2020 22:05:00 6.3 C 6.96 g/m*3 6.3 C 0 km/h
843 12-10-2020 22:10:00 6.2 C 6.91 g/m*3 6.2 C 0 km/h
844 12-10-2020 22:15:00 6.2 C 6.91 g/m*3 6.2 C 1.6 km/h
845 12-10-2020 22:20:00 6.2 C 6.99 g/m*3 6.2 C 0 km/h
846 12-10-2020 22:25:00 6.3 C 7.03 g/m*3 6.3 C 0 km/h
847 12-10-2020 22:30:00 6.3 C 7.03 g/m*3 6.3 C 0 km/h
848 12-10-2020 22:35:00 6.4 C 7.08 g/m*3 6.4 C 0 km/h
849 12-10-2020 22:40:00 6.4 C 7.08 g/m*3 6.4 C 0 km/h
850 12-10-2020 22:45:00 6.5 C 7.12 g/m*3 6.5 C 0 km/h
Sensor: Nr:Datum:Temp:Abs-Feuchte:Windchill:Wind:
Aussen-T/F 851 12-10-2020 22:50:00 6.5 C 7.12 g/m*3 6.5 C 0 km/h
852 12-10-2020 22:55:00 6.4 C 7.08 g/m*3 6.4 C 0 km/h
853 12-10-2020 23:00:00 6.4 C 7.08 g/m*3 6.4 C 0 km/h
854 12-10-2020 23:05:00 6.3 C 7.03 g/m*3 6.3 C 0 km/h
855 12-10-2020 23:10:00 6.2 C 6.99 g/m*3 6.2 C 0 km/h
856 12-10-2020 23:15:00 6.1 C 6.87 g/m*3 6.1 C 0 km/h
857 12-10-2020 23:20:00 5.9 C 6.85 g/m*3 5.9 C 0 km/h
858 12-10-2020 23:25:00 5.9 C 6.85 g/m*3 5.9 C 0 km/h
859 12-10-2020 23:30:00 5.8 C 6.81 g/m*3 5.8 C 0 km/h
860 12-10-2020 23:35:00 5.8 C 6.81 g/m*3 5.8 C 0 km/h
861 12-10-2020 23:40:00 5.8 C 6.81 g/m*3 5.8 C 0 km/h
862 12-10-2020 23:45:00 5.7 C 6.76 g/m*3 5.7 C 0 km/h
863 12-10-2020 23:50:00 5.7 C 6.76 g/m*3 5.7 C 0 km/h
864 12-10-2020 23:55:00 5.7 C 6.76 g/m*3 5.7 C 0 km/h

Legende:
   Min
   Max


Maximal/Minimal-Werte vom 10.10.2020 - 12.10.2020

Sensor Min Max Avg
Temp
(Aussen-T/F)
5.7 °C
12-10-2020  23:45:00
13.2 °C
11-10-2020  14:40:00
9.8 °C
Abs-Feuchte
(Aussen-T/F)
6.76 g/m*3
12-10-2020  23:45:00
9.77 g/m*3
10-10-2020  00:00:00
8.05 g/m*3
Windchill
(Aussen-T/F)
4.99 C
10-10-2020  21:50:00
13.2 C
11-10-2020  14:40:00
9.65 C

Die Daten stammen von einer Davis Vantage Pro 2 Wetter-Station und werden unter Linux mit der Software wview2wettercgi und aufbereitet. Alle Angaben erfolgen ohne Gewähr für ihre Vollständigkeit oder Richtigkeit.
Kontakt: Rainer Krienke krienke@uni-koblenz.de . Meine Webseiten an der Uni Koblenz oder privat.
Version: $Revision: 0.78 $